sensor_id;sensor_type;location;lat;lon;timestamp;pressure;altitude;pressure_sealevel;temperature;humidity
6387;BME280;3226;42.162;24.756;2023-05-24T00:00:31;99404.19;;;15.07;98.84
6387;BME280;3226;42.162;24.756;2023-05-24T00:02:59;99375.13;;;14.82;99.78
6387;BME280;3226;42.162;24.756;2023-05-24T00:05:31;99396.09;;;15.16;98.58
6387;BME280;3226;42.162;24.756;2023-05-24T00:08:03;99394.63;;;15.30;99.01
6387;BME280;3226;42.162;24.756;2023-05-24T00:10:31;99385.06;;;15.29;99.16
6387;BME280;3226;42.162;24.756;2023-05-24T00:12:59;99383.56;;;15.18;99.27
6387;BME280;3226;42.162;24.756;2023-05-24T00:15:27;99382.28;;;15.31;98.39
6387;BME280;3226;42.162;24.756;2023-05-24T00:17:55;99392.00;;;15.22;98.61
6387;BME280;3226;42.162;24.756;2023-05-24T00:20:23;99389.66;;;15.02;98.37
6387;BME280;3226;42.162;24.756;2023-05-24T00:22:53;99396.28;;;15.07;97.71
6387;BME280;3226;42.162;24.756;2023-05-24T00:25:20;99392.81;;;15.14;96.89
6387;BME280;3226;42.162;24.756;2023-05-24T00:27:48;99391.00;;;15.07;96.84
6387;BME280;3226;42.162;24.756;2023-05-24T00:30:16;99394.59;;;14.97;97.10
6387;BME280;3226;42.162;24.756;2023-05-24T00:32:45;99393.28;;;15.01;96.84
6387;BME280;3226;42.162;24.756;2023-05-24T00:35:13;99385.56;;;15.00;97.39
6387;BME280;3226;42.162;24.756;2023-05-24T00:37:41;99380.78;;;15.03;97.35
6387;BME280;3226;42.162;24.756;2023-05-24T00:40:12;99378.16;;;15.03;97.08
6387;BME280;3226;42.162;24.756;2023-05-24T00:42:40;99377.63;;;15.00;97.05
6387;BME280;3226;42.162;24.756;2023-05-24T00:45:09;99370.53;;;15.00;97.48
6387;BME280;3226;42.162;24.756;2023-05-24T00:47:37;99366.22;;;14.83;97.75
6387;BME280;3226;42.162;24.756;2023-05-24T00:50:06;99365.38;;;14.74;99.14
6387;BME280;3226;42.162;24.756;2023-05-24T00:52:35;99364.25;;;14.77;99.09
6387;BME280;3226;42.162;24.756;2023-05-24T00:55:04;99361.09;;;14.73;98.93
6387;BME280;3226;42.162;24.756;2023-05-24T00:57:34;99362.38;;;14.69;98.76
6387;BME280;3226;42.162;24.756;2023-05-24T01:00:04;99365.84;;;14.69;98.48
6387;BME280;3226;42.162;24.756;2023-05-24T01:02:33;99355.16;;;14.71;98.63
6387;BME280;3226;42.162;24.756;2023-05-24T01:05:02;99358.66;;;14.80;97.44
6387;BME280;3226;42.162;24.756;2023-05-24T01:07:36;99347.13;;;14.89;96.13
6387;BME280;3226;42.162;24.756;2023-05-24T01:10:13;99356.03;;;14.80;95.58
6387;BME280;3226;42.162;24.756;2023-05-24T01:12:56;99345.47;;;14.80;95.06
6387;BME280;3226;42.162;24.756;2023-05-24T01:15:32;99350.09;;;14.86;94.54
6387;BME280;3226;42.162;24.756;2023-05-24T01:18:10;99349.09;;;14.79;94.11
6387;BME280;3226;42.162;24.756;2023-05-24T01:20:42;99343.81;;;14.70;94.66
6387;BME280;3226;42.162;24.756;2023-05-24T01:23:22;99344.16;;;14.76;93.81
6387;BME280;3226;42.162;24.756;2023-05-24T01:26:05;99345.47;;;14.80;93.27
6387;BME280;3226;42.162;24.756;2023-05-24T01:28:38;99340.84;;;14.73;93.37
6387;BME280;3226;42.162;24.756;2023-05-24T01:31:06;99344.47;;;14.81;92.29
6387;BME280;3226;42.162;24.756;2023-05-24T01:33:34;99349.75;;;14.72;92.19
6387;BME280;3226;42.162;24.756;2023-05-24T01:36:07;99338.31;;;14.55;93.40
6387;BME280;3226;42.162;24.756;2023-05-24T01:38:35;99342.09;;;14.61;93.35
6387;BME280;3226;42.162;24.756;2023-05-24T01:41:08;99344.25;;;14.66;93.38
6387;BME280;3226;42.162;24.756;2023-05-24T01:43:47;99351.84;;;14.69;92.84
6387;BME280;3226;42.162;24.756;2023-05-24T01:46:23;99350.00;;;14.61;92.71
6387;BME280;3226;42.162;24.756;2023-05-24T01:48:58;99330.88;;;14.59;92.83
6387;BME280;3226;42.162;24.756;2023-05-24T01:51:37;99346.88;;;14.57;94.09
6387;BME280;3226;42.162;24.756;2023-05-24T01:54:07;99347.53;;;14.59;93.78
6387;BME280;3226;42.162;24.756;2023-05-24T01:56:37;99350.16;;;14.59;94.07
6387;BME280;3226;42.162;24.756;2023-05-24T01:59:08;99358.53;;;14.55;94.90
6387;BME280;3226;42.162;24.756;2023-05-24T02:01:36;99355.56;;;14.50;95.86
6387;BME280;3226;42.162;24.756;2023-05-24T02:04:05;99356.69;;;14.47;95.21
6387;BME280;3226;42.162;24.756;2023-05-24T02:06:33;99370.03;;;14.37;95.55
6387;BME280;3226;42.162;24.756;2023-05-24T02:09:01;99379.41;;;14.40;95.59
6387;BME280;3226;42.162;24.756;2023-05-24T02:11:29;99389.13;;;14.13;97.13
6387;BME280;3226;42.162;24.756;2023-05-24T02:13:57;99389.59;;;14.00;98.86
6387;BME280;3226;42.162;24.756;2023-05-24T02:16:26;99396.19;;;14.04;97.50
6387;BME280;3226;42.162;24.756;2023-05-24T02:18:56;99391.34;;;13.91;98.94
6387;BME280;3226;42.162;24.756;2023-05-24T02:21:24;99393.63;;;13.86;99.75
6387;BME280;3226;42.162;24.756;2023-05-24T02:23:54;99391.84;;;13.95;100.00
6387;BME280;3226;42.162;24.756;2023-05-24T02:26:22;99369.44;;;13.91;99.26
6387;BME280;3226;42.162;24.756;2023-05-24T02:28:50;99396.16;;;13.78;100.00
6387;BME280;3226;42.162;24.756;2023-05-24T02:31:18;99394.47;;;13.68;100.00
6387;BME280;3226;42.162;24.756;2023-05-24T02:33:48;99408.25;;;13.88;100.00
6387;BME280;3226;42.162;24.756;2023-05-24T02:36:16;99403.06;;;13.97;100.00
6387;BME280;3226;42.162;24.756;2023-05-24T02:38:44;99409.59;;;13.93;100.00
6387;BME280;3226;42.162;24.756;2023-05-24T02:41:12;99406.47;;;13.89;100.00
6387;BME280;3226;42.162;24.756;2023-05-24T02:43:43;99412.41;;;13.91;100.00
6387;BME280;3226;42.162;24.756;2023-05-24T02:46:11;99424.56;;;13.66;100.00
6387;BME280;3226;42.162;24.756;2023-05-24T02:48:40;99421.75;;;13.31;100.00
6387;BME280;3226;42.162;24.756;2023-05-24T02:51:09;99417.03;;;13.16;100.00
6387;BME280;3226;42.162;24.756;2023-05-24T02:53:37;99422.13;;;13.18;100.00
6387;BME280;3226;42.162;24.756;2023-05-24T02:56:05;99401.44;;;13.23;100.00
6387;BME280;3226;42.162;24.756;2023-05-24T02:58:34;99415.69;;;13.30;100.00
6387;BME280;3226;42.162;24.756;2023-05-24T03:01:06;99415.00;;;13.28;100.00
6387;BME280;3226;42.162;24.756;2023-05-24T03:03:34;99417.63;;;13.10;100.00
6387;BME280;3226;42.162;24.756;2023-05-24T03:06:02;99418.78;;;12.98;100.00
6387;BME280;3226;42.162;24.756;2023-05-24T03:08:32;99432.19;;;13.05;100.00
6387;BME280;3226;42.162;24.756;2023-05-24T03:11:00;99420.25;;;13.28;100.00
6387;BME280;3226;42.162;24.756;2023-05-24T03:13:28;99411.28;;;13.03;100.00
6387;BME280;3226;42.162;24.756;2023-05-24T03:15:56;99411.06;;;12.96;100.00
6387;BME280;3226;42.162;24.756;2023-05-24T03:18:24;99410.41;;;12.94;100.00
6387;BME280;3226;42.162;24.756;2023-05-24T03:20:52;99417.69;;;13.19;100.00
6387;BME280;3226;42.162;24.756;2023-05-24T03:23:20;99422.13;;;13.36;100.00
6387;BME280;3226;42.162;24.756;2023-05-24T03:25:49;99417.78;;;13.45;100.00
6387;BME280;3226;42.162;24.756;2023-05-24T03:28:17;99414.03;;;13.29;100.00
6387;BME280;3226;42.162;24.756;2023-05-24T03:30:47;99417.78;;;13.27;100.00
6387;BME280;3226;42.162;24.756;2023-05-24T03:33:16;99419.34;;;13.38;100.00
6387;BME280;3226;42.162;24.756;2023-05-24T03:35:44;99411.88;;;13.43;100.00
6387;BME280;3226;42.162;24.756;2023-05-24T03:38:12;99413.75;;;13.51;100.00
6387;BME280;3226;42.162;24.756;2023-05-24T03:40:39;99416.88;;;13.54;100.00
6387;BME280;3226;42.162;24.756;2023-05-24T03:43:09;99417.03;;;13.71;100.00
6387;BME280;3226;42.162;24.756;2023-05-24T03:45:37;99413.00;;;13.85;100.00
6387;BME280;3226;42.162;24.756;2023-05-24T03:48:06;99415.28;;;14.06;100.00
6387;BME280;3226;42.162;24.756;2023-05-24T03:50:34;99403.88;;;13.97;100.00
6387;BME280;3226;42.162;24.756;2023-05-24T03:53:02;99427.16;;;14.10;100.00
6387;BME280;3226;42.162;24.756;2023-05-24T03:55:30;99416.31;;;14.13;100.00
6387;BME280;3226;42.162;24.756;2023-05-24T03:57:58;99411.72;;;14.15;100.00
6387;BME280;3226;42.162;24.756;2023-05-24T04:00:27;99418.00;;;14.23;100.00
6387;BME280;3226;42.162;24.756;2023-05-24T04:02:55;99416.13;;;14.41;100.00
6387;BME280;3226;42.162;24.756;2023-05-24T04:05:23;99414.72;;;14.55;98.99
6387;BME280;3226;42.162;24.756;2023-05-24T04:07:55;99417.81;;;14.51;99.38
6387;BME280;3226;42.162;24.756;2023-05-24T04:10:23;99419.16;;;14.63;99.24
6387;BME280;3226;42.162;24.756;2023-05-24T04:12:51;99424.56;;;14.88;96.33
6387;BME280;3226;42.162;24.756;2023-05-24T04:15:19;99426.53;;;14.86;95.76
6387;BME280;3226;42.162;24.756;2023-05-24T04:17:49;99426.41;;;14.96;94.30
6387;BME280;3226;42.162;24.756;2023-05-24T04:20:21;99418.66;;;14.94;93.41
6387;BME280;3226;42.162;24.756;2023-05-24T04:22:51;99423.63;;;15.06;92.18
6387;BME280;3226;42.162;24.756;2023-05-24T04:25:19;99425.78;;;15.18;89.35
6387;BME280;3226;42.162;24.756;2023-05-24T04:27:47;99425.47;;;15.22;88.86
6387;BME280;3226;42.162;24.756;2023-05-24T04:30:16;99424.97;;;15.35;87.72
6387;BME280;3226;42.162;24.756;2023-05-24T04:32:44;99431.28;;;15.42;86.63
6387;BME280;3226;42.162;24.756;2023-05-24T04:35:13;99432.59;;;15.54;85.73
6387;BME280;3226;42.162;24.756;2023-05-24T04:37:42;99422.69;;;15.56;85.67
6387;BME280;3226;42.162;24.756;2023-05-24T04:40:11;99415.75;;;15.72;83.59
6387;BME280;3226;42.162;24.756;2023-05-24T04:42:39;99420.06;;;15.81;83.59
6387;BME280;3226;42.162;24.756;2023-05-24T04:45:08;99407.00;;;15.88;81.21
6387;BME280;3226;42.162;24.756;2023-05-24T04:47:36;99389.03;;;15.83;79.58
6387;BME280;3226;42.162;24.756;2023-05-24T04:50:05;99392.34;;;15.94;79.71
6387;BME280;3226;42.162;24.756;2023-05-24T04:52:35;99421.81;;;16.22;77.36
6387;BME280;3226;42.162;24.756;2023-05-24T04:55:03;99418.94;;;16.40;78.15
6387;BME280;3226;42.162;24.756;2023-05-24T04:57:32;99420.88;;;16.55;76.89
6387;BME280;3226;42.162;24.756;2023-05-24T05:00:00;99425.44;;;16.69;76.08
6387;BME280;3226;42.162;24.756;2023-05-24T05:02:28;99428.84;;;16.86;75.34
6387;BME280;3226;42.162;24.756;2023-05-24T05:04:56;99433.78;;;16.89;75.01
6387;BME280;3226;42.162;24.756;2023-05-24T05:07:24;99434.88;;;17.03;74.55
6387;BME280;3226;42.162;24.756;2023-05-24T05:09:54;99444.34;;;16.89;74.25
6387;BME280;3226;42.162;24.756;2023-05-24T05:12:22;99443.38;;;16.51;75.60
6387;BME280;3226;42.162;24.756;2023-05-24T05:14:50;99449.13;;;16.62;75.95
6387;BME280;3226;42.162;24.756;2023-05-24T05:17:18;99451.63;;;16.87;75.02
6387;BME280;3226;42.162;24.756;2023-05-24T05:19:47;99450.06;;;16.13;77.30
6387;BME280;3226;42.162;24.756;2023-05-24T05:22:15;99447.47;;;15.88;80.23
6387;BME280;3226;42.162;24.756;2023-05-24T05:24:43;99448.44;;;15.96;80.86
6387;BME280;3226;42.162;24.756;2023-05-24T05:27:12;99451.38;;;16.26;79.20
6387;BME280;3226;42.162;24.756;2023-05-24T05:29:40;99457.63;;;16.25;78.82
6387;BME280;3226;42.162;24.756;2023-05-24T05:32:08;99462.09;;;16.81;77.92
6387;BME280;3226;42.162;24.756;2023-05-24T05:34:36;99430.25;;;16.97;77.49
6387;BME280;3226;42.162;24.756;2023-05-24T05:37:04;99455.78;;;17.22;76.76
6387;BME280;3226;42.162;24.756;2023-05-24T05:39:32;99460.06;;;17.46;76.13
6387;BME280;3226;42.162;24.756;2023-05-24T05:42:00;99452.03;;;17.62;76.13
6387;BME280;3226;42.162;24.756;2023-05-24T05:44:30;99448.31;;;17.72;75.07
6387;BME280;3226;42.162;24.756;2023-05-24T05:46:58;99449.22;;;17.79;75.06
6387;BME280;3226;42.162;24.756;2023-05-24T05:49:26;99457.13;;;17.87;74.10
6387;BME280;3226;42.162;24.756;2023-05-24T05:51:54;99458.00;;;18.03;73.23
6387;BME280;3226;42.162;24.756;2023-05-24T05:54:22;99442.94;;;18.18;72.87
6387;BME280;3226;42.162;24.756;2023-05-24T05:56:50;99460.84;;;18.16;73.64
6387;BME280;3226;42.162;24.756;2023-05-24T05:59:17;99454.41;;;17.96;72.81
6387;BME280;3226;42.162;24.756;2023-05-24T06:01:47;99456.19;;;17.80;73.69
6387;BME280;3226;42.162;24.756;2023-05-24T06:04:15;99465.09;;;18.02;73.58
6387;BME280;3226;42.162;24.756;2023-05-24T06:06:43;99471.00;;;18.28;72.78
6387;BME280;3226;42.162;24.756;2023-05-24T06:09:15;99483.91;;;18.46;71.18
6387;BME280;3226;42.162;24.756;2023-05-24T06:11:43;99474.69;;;18.57;71.31
6387;BME280;3226;42.162;24.756;2023-05-24T06:14:11;99474.00;;;18.55;70.24
6387;BME280;3226;42.162;24.756;2023-05-24T06:16:43;99473.69;;;18.58;70.45
6387;BME280;3226;42.162;24.756;2023-05-24T06:19:15;99473.09;;;18.77;69.30
6387;BME280;3226;42.162;24.756;2023-05-24T06:21:44;99471.16;;;18.86;69.03
6387;BME280;3226;42.162;24.756;2023-05-24T06:24:14;99479.94;;;19.02;69.62
6387;BME280;3226;42.162;24.756;2023-05-24T06:26:46;99480.53;;;19.19;68.42
6387;BME280;3226;42.162;24.756;2023-05-24T06:29:14;99482.97;;;19.35;67.42
6387;BME280;3226;42.162;24.756;2023-05-24T06:31:42;99476.66;;;19.00;68.92
6387;BME280;3226;42.162;24.756;2023-05-24T06:34:10;99479.34;;;18.40;72.72
6387;BME280;3226;42.162;24.756;2023-05-24T06:36:39;99486.72;;;18.29;73.91
6387;BME280;3226;42.162;24.756;2023-05-24T06:39:08;99480.03;;;18.18;74.26
6387;BME280;3226;42.162;24.756;2023-05-24T06:41:36;99491.22;;;18.29;73.78
6387;BME280;3226;42.162;24.756;2023-05-24T06:44:05;99490.56;;;18.27;74.19
6387;BME280;3226;42.162;24.756;2023-05-24T06:46:33;99493.13;;;18.35;73.83
6387;BME280;3226;42.162;24.756;2023-05-24T06:49:01;99496.69;;;18.42;73.43
6387;BME280;3226;42.162;24.756;2023-05-24T06:51:30;99486.94;;;18.43;73.19
6387;BME280;3226;42.162;24.756;2023-05-24T06:54:00;99492.28;;;18.04;74.65
6387;BME280;3226;42.162;24.756;2023-05-24T06:56:29;99481.34;;;18.23;74.73
6387;BME280;3226;42.162;24.756;2023-05-24T06:58:58;99480.03;;;18.78;72.91
6387;BME280;3226;42.162;24.756;2023-05-24T07:01:26;99476.09;;;19.04;72.02
6387;BME280;3226;42.162;24.756;2023-05-24T07:03:54;99468.88;;;19.13;71.37
6387;BME280;3226;42.162;24.756;2023-05-24T07:06:23;99467.84;;;19.14;70.46
6387;BME280;3226;42.162;24.756;2023-05-24T07:08:51;99461.19;;;19.25;71.81
6387;BME280;3226;42.162;24.756;2023-05-24T07:11:21;99466.63;;;19.17;70.31
6387;BME280;3226;42.162;24.756;2023-05-24T07:13:49;99465.28;;;19.43;69.61
6387;BME280;3226;42.162;24.756;2023-05-24T07:16:17;99455.28;;;19.67;69.12
6387;BME280;3226;42.162;24.756;2023-05-24T07:18:45;99461.34;;;19.39;69.67
6387;BME280;3226;42.162;24.756;2023-05-24T07:21:13;99457.28;;;19.21;70.19
6387;BME280;3226;42.162;24.756;2023-05-24T07:23:41;99452.31;;;19.55;68.78
6387;BME280;3226;42.162;24.756;2023-05-24T07:26:09;99459.28;;;20.06;67.50
6387;BME280;3226;42.162;24.756;2023-05-24T07:28:39;99459.38;;;19.91;67.66
6387;BME280;3226;42.162;24.756;2023-05-24T07:31:08;99449.81;;;19.97;67.76
6387;BME280;3226;42.162;24.756;2023-05-24T07:33:36;99464.63;;;20.13;66.75
6387;BME280;3226;42.162;24.756;2023-05-24T07:36:04;99461.63;;;20.22;67.00
6387;BME280;3226;42.162;24.756;2023-05-24T07:38:33;99456.00;;;20.74;64.51
6387;BME280;3226;42.162;24.756;2023-05-24T07:41:02;99460.66;;;21.07;63.63
6387;BME280;3226;42.162;24.756;2023-05-24T07:43:30;99460.19;;;20.97;63.57
6387;BME280;3226;42.162;24.756;2023-05-24T07:45:59;99471.03;;;21.02;62.96
6387;BME280;3226;42.162;24.756;2023-05-24T07:48:28;99468.22;;;21.11;63.35
6387;BME280;3226;42.162;24.756;2023-05-24T07:50:56;99458.41;;;21.18;60.00
6387;BME280;3226;42.162;24.756;2023-05-24T07:53:24;99461.91;;;21.25;59.26
6387;BME280;3226;42.162;24.756;2023-05-24T07:55:52;99457.03;;;21.42;58.22
6387;BME280;3226;42.162;24.756;2023-05-24T07:58:20;99458.88;;;21.55;57.15
6387;BME280;3226;42.162;24.756;2023-05-24T08:00:48;99449.69;;;21.58;56.50
6387;BME280;3226;42.162;24.756;2023-05-24T08:03:18;99461.56;;;21.69;57.46
6387;BME280;3226;42.162;24.756;2023-05-24T08:05:46;99464.88;;;21.64;57.29
6387;BME280;3226;42.162;24.756;2023-05-24T08:08:14;99457.06;;;21.83;56.07
6387;BME280;3226;42.162;24.756;2023-05-24T08:10:42;99446.84;;;21.66;54.39
6387;BME280;3226;42.162;24.756;2023-05-24T08:13:10;99458.50;;;21.65;55.03
6387;BME280;3226;42.162;24.756;2023-05-24T08:15:38;99457.28;;;21.67;54.43
6387;BME280;3226;42.162;24.756;2023-05-24T08:18:07;99450.47;;;21.58;54.79
6387;BME280;3226;42.162;24.756;2023-05-24T08:20:37;99464.22;;;21.89;53.43
6387;BME280;3226;42.162;24.756;2023-05-24T08:23:06;99456.22;;;22.09;53.52
6387;BME280;3226;42.162;24.756;2023-05-24T08:25:34;99453.38;;;21.90;54.01
6387;BME280;3226;42.162;24.756;2023-05-24T08:28:02;99452.75;;;22.15;54.42
6387;BME280;3226;42.162;24.756;2023-05-24T08:30:30;99462.13;;;22.38;53.73
6387;BME280;3226;42.162;24.756;2023-05-24T08:32:58;99457.59;;;22.52;53.39
6387;BME280;3226;42.162;24.756;2023-05-24T08:35:26;99455.75;;;22.52;51.94
6387;BME280;3226;42.162;24.756;2023-05-24T08:37:56;99454.94;;;22.38;50.92
6387;BME280;3226;42.162;24.756;2023-05-24T08:40:24;99465.19;;;22.35;50.89
6387;BME280;3226;42.162;24.756;2023-05-24T08:42:52;99462.34;;;22.30;51.24
6387;BME280;3226;42.162;24.756;2023-05-24T08:45:21;99455.34;;;22.56;50.50
6387;BME280;3226;42.162;24.756;2023-05-24T08:47:49;99465.94;;;22.76;50.48
6387;BME280;3226;42.162;24.756;2023-05-24T08:50:18;99457.69;;;22.77;50.18
6387;BME280;3226;42.162;24.756;2023-05-24T08:52:47;99465.50;;;22.86;50.21
6387;BME280;3226;42.162;24.756;2023-05-24T08:55:17;99456.38;;;23.00;49.60
6387;BME280;3226;42.162;24.756;2023-05-24T08:57:45;99459.75;;;22.75;49.95
6387;BME280;3226;42.162;24.756;2023-05-24T09:00:15;99464.91;;;22.70;49.76
6387;BME280;3226;42.162;24.756;2023-05-24T09:02:44;99455.78;;;22.98;49.97
6387;BME280;3226;42.162;24.756;2023-05-24T09:05:13;99463.03;;;22.84;49.81
6387;BME280;3226;42.162;24.756;2023-05-24T09:07:43;99450.53;;;23.17;48.74
6387;BME280;3226;42.162;24.756;2023-05-24T09:10:12;99456.75;;;23.43;48.87
6387;BME280;3226;42.162;24.756;2023-05-24T09:12:44;99456.19;;;23.66;48.61
6387;BME280;3226;42.162;24.756;2023-05-24T09:15:12;99459.78;;;23.78;48.26
6387;BME280;3226;42.162;24.756;2023-05-24T09:17:40;99461.19;;;23.81;48.38
6387;BME280;3226;42.162;24.756;2023-05-24T09:20:09;99454.78;;;23.63;45.93
6387;BME280;3226;42.162;24.756;2023-05-24T09:22:40;99461.50;;;23.41;44.45
6387;BME280;3226;42.162;24.756;2023-05-24T09:25:11;99462.97;;;23.36;43.93
6387;BME280;3226;42.162;24.756;2023-05-24T09:27:39;99455.94;;;23.74;43.67
6387;BME280;3226;42.162;24.756;2023-05-24T09:30:10;99450.34;;;24.01;44.32
6387;BME280;3226;42.162;24.756;2023-05-24T09:32:38;99437.66;;;24.15;44.49
6387;BME280;3226;42.162;24.756;2023-05-24T09:35:07;99442.94;;;24.22;44.06
6387;BME280;3226;42.162;24.756;2023-05-24T09:37:36;99454.25;;;24.24;44.14
6387;BME280;3226;42.162;24.756;2023-05-24T09:40:16;99450.09;;;24.28;41.79
6387;BME280;3226;42.162;24.756;2023-05-24T09:42:45;99445.25;;;24.18;41.07
6387;BME280;3226;42.162;24.756;2023-05-24T09:45:20;99442.88;;;24.47;40.93
6387;BME280;3226;42.162;24.756;2023-05-24T09:47:51;99447.03;;;24.80;39.65
6387;BME280;3226;42.162;24.756;2023-05-24T09:50:19;99433.25;;;24.95;40.72
6387;BME280;3226;42.162;24.756;2023-05-24T09:52:48;99449.28;;;25.26;39.74
6387;BME280;3226;42.162;24.756;2023-05-24T09:55:20;99452.81;;;25.26;40.79
6387;BME280;3226;42.162;24.756;2023-05-24T09:57:50;99443.03;;;25.32;38.14
6387;BME280;3226;42.162;24.756;2023-05-24T10:00:22;99441.19;;;25.45;38.52
6387;BME280;3226;42.162;24.756;2023-05-24T10:03:00;99438.41;;;25.39;39.10
6387;BME280;3226;42.162;24.756;2023-05-24T10:05:29;99439.56;;;25.44;39.66
6387;BME280;3226;42.162;24.756;2023-05-24T10:07:58;99433.69;;;25.53;40.12
6387;BME280;3226;42.162;24.756;2023-05-24T10:10:27;99440.66;;;25.54;38.61
6387;BME280;3226;42.162;24.756;2023-05-24T10:12:56;99433.56;;;25.18;37.75
6387;BME280;3226;42.162;24.756;2023-05-24T10:15:26;99436.91;;;24.82;38.25
6387;BME280;3226;42.162;24.756;2023-05-24T10:17:55;99428.16;;;24.75;38.58
6387;BME280;3226;42.162;24.756;2023-05-24T10:20:24;99431.41;;;25.08;39.50
6387;BME280;3226;42.162;24.756;2023-05-24T10:22:56;99429.16;;;25.23;39.30
6387;BME280;3226;42.162;24.756;2023-05-24T10:25:27;99427.78;;;25.45;38.12
6387;BME280;3226;42.162;24.756;2023-05-24T10:27:57;99423.19;;;25.64;38.17
6387;BME280;3226;42.162;24.756;2023-05-24T10:30:33;99419.22;;;25.54;37.35
6387;BME280;3226;42.162;24.756;2023-05-24T10:33:05;99421.56;;;25.75;39.09
6387;BME280;3226;42.162;24.756;2023-05-24T10:35:35;99417.84;;;25.76;36.88
6387;BME280;3226;42.162;24.756;2023-05-24T10:38:05;99415.25;;;25.69;38.03
6387;BME280;3226;42.162;24.756;2023-05-24T10:40:40;99415.38;;;25.86;36.99
6387;BME280;3226;42.162;24.756;2023-05-24T10:43:09;99406.63;;;25.79;37.90
6387;BME280;3226;42.162;24.756;2023-05-24T10:45:39;99399.50;;;25.49;36.50
6387;BME280;3226;42.162;24.756;2023-05-24T10:48:16;99403.00;;;25.07;34.88
6387;BME280;3226;42.162;24.756;2023-05-24T10:50:45;99398.28;;;24.60;34.84
6387;BME280;3226;42.162;24.756;2023-05-24T10:53:14;99397.72;;;24.88;35.58
6387;BME280;3226;42.162;24.756;2023-05-24T10:55:53;99387.03;;;25.00;36.46
6387;BME280;3226;42.162;24.756;2023-05-24T10:58:26;99387.66;;;25.14;35.67
6387;BME280;3226;42.162;24.756;2023-05-24T11:00:57;99383.88;;;25.46;35.54
6387;BME280;3226;42.162;24.756;2023-05-24T11:03:31;99377.59;;;25.52;35.87
6387;BME280;3226;42.162;24.756;2023-05-24T11:05:59;99383.44;;;25.84;34.67
6387;BME280;3226;42.162;24.756;2023-05-24T11:08:29;99383.16;;;25.38;35.71
6387;BME280;3226;42.162;24.756;2023-05-24T11:11:09;99382.56;;;25.24;35.42
6387;BME280;3226;42.162;24.756;2023-05-24T11:13:40;99388.22;;;25.04;35.95
6387;BME280;3226;42.162;24.756;2023-05-24T11:16:33;99385.16;;;25.01;34.62
6387;BME280;3226;42.162;24.756;2023-05-24T11:19:17;99385.53;;;25.04;35.33
6387;BME280;3226;42.162;24.756;2023-05-24T11:21:47;99381.59;;;25.19;36.11
6387;BME280;3226;42.162;24.756;2023-05-24T11:24:16;99380.09;;;25.11;36.06
6387;BME280;3226;42.162;24.756;2023-05-24T11:26:44;99380.56;;;25.20;36.48
6387;BME280;3226;42.162;24.756;2023-05-24T11:29:13;99373.84;;;24.87;35.61
6387;BME280;3226;42.162;24.756;2023-05-24T11:31:49;99375.28;;;25.01;36.49
6387;BME280;3226;42.162;24.756;2023-05-24T11:34:18;99372.88;;;25.23;36.67
6387;BME280;3226;42.162;24.756;2023-05-24T11:36:47;99377.16;;;25.67;36.17
6387;BME280;3226;42.162;24.756;2023-05-24T11:39:15;99372.47;;;25.86;35.50
6387;BME280;3226;42.162;24.756;2023-05-24T11:41:43;99374.56;;;25.84;36.07
6387;BME280;3226;42.162;24.756;2023-05-24T11:44:16;99373.41;;;25.56;35.65
6387;BME280;3226;42.162;24.756;2023-05-24T11:46:45;99373.66;;;25.66;35.88
6387;BME280;3226;42.162;24.756;2023-05-24T11:49:15;99369.97;;;25.37;36.15
6387;BME280;3226;42.162;24.756;2023-05-24T11:51:43;99368.72;;;25.39;38.22
6387;BME280;3226;42.162;24.756;2023-05-24T11:54:11;99372.25;;;25.64;38.50
6387;BME280;3226;42.162;24.756;2023-05-24T11:56:39;99365.59;;;25.90;37.87
6387;BME280;3226;42.162;24.756;2023-05-24T11:59:13;99365.56;;;26.02;38.35
6387;BME280;3226;42.162;24.756;2023-05-24T12:01:41;99349.84;;;26.18;38.31
6387;BME280;3226;42.162;24.756;2023-05-24T12:04:10;99352.44;;;26.41;38.01
6387;BME280;3226;42.162;24.756;2023-05-24T12:06:41;99340.25;;;26.51;39.00
6387;BME280;3226;42.162;24.756;2023-05-24T12:09:11;99338.72;;;26.55;38.40
6387;BME280;3226;42.162;24.756;2023-05-24T12:11:41;99312.91;;;26.37;38.04
6387;BME280;3226;42.162;24.756;2023-05-24T12:14:12;99331.16;;;25.99;38.91
6387;BME280;3226;42.162;24.756;2023-05-24T12:16:41;99323.81;;;26.06;39.09
6387;BME280;3226;42.162;24.756;2023-05-24T12:19:12;99315.59;;;26.37;38.62
6387;BME280;3226;42.162;24.756;2023-05-24T12:21:44;99299.00;;;26.40;38.26
6387;BME280;3226;42.162;24.756;2023-05-24T12:24:14;99320.75;;;26.55;37.29
6387;BME280;3226;42.162;24.756;2023-05-24T12:26:43;99323.16;;;26.40;35.98
6387;BME280;3226;42.162;24.756;2023-05-24T12:29:12;99323.69;;;26.13;36.83
6387;BME280;3226;42.162;24.756;2023-05-24T12:31:41;99308.09;;;25.86;37.04
6387;BME280;3226;42.162;24.756;2023-05-24T12:34:11;99319.41;;;25.88;36.77
6387;BME280;3226;42.162;24.756;2023-05-24T12:36:40;99314.72;;;25.95;36.97
6387;BME280;3226;42.162;24.756;2023-05-24T12:39:20;99316.19;;;25.50;36.41
6387;BME280;3226;42.162;24.756;2023-05-24T12:41:52;99314.28;;;25.27;37.45
6387;BME280;3226;42.162;24.756;2023-05-24T12:44:22;99299.84;;;25.16;37.51
6387;BME280;3226;42.162;24.756;2023-05-24T12:46:52;99311.13;;;25.06;36.11
6387;BME280;3226;42.162;24.756;2023-05-24T12:49:21;99316.63;;;25.23;36.38
6387;BME280;3226;42.162;24.756;2023-05-24T12:51:50;99309.28;;;25.19;36.76
6387;BME280;3226;42.162;24.756;2023-05-24T12:54:20;99321.34;;;24.97;35.87
6387;BME280;3226;42.162;24.756;2023-05-24T12:56:49;99316.31;;;24.77;37.05
6387;BME280;3226;42.162;24.756;2023-05-24T12:59:21;99318.13;;;25.07;36.65
6387;BME280;3226;42.162;24.756;2023-05-24T13:01:49;99297.75;;;25.18;35.66
6387;BME280;3226;42.162;24.756;2023-05-24T13:04:19;99318.41;;;25.65;35.35
6387;BME280;3226;42.162;24.756;2023-05-24T13:06:48;99312.94;;;26.13;35.86
6387;BME280;3226;42.162;24.756;2023-05-24T13:09:16;99310.13;;;26.49;36.56
6387;BME280;3226;42.162;24.756;2023-05-24T13:11:48;99314.78;;;26.82;34.42
6387;BME280;3226;42.162;24.756;2023-05-24T13:14:16;99305.44;;;27.02;34.79
6387;BME280;3226;42.162;24.756;2023-05-24T13:16:45;99317.38;;;26.77;35.55
6387;BME280;3226;42.162;24.756;2023-05-24T13:19:14;99312.38;;;26.23;34.94
6387;BME280;3226;42.162;24.756;2023-05-24T13:21:42;99320.94;;;25.84;35.61